Time;durP1;ratioP1;P1;durP2;ratioP2;P2;SDS_P1;SDS_P2;PMS_P1;PMS_P2;Temp;Humidity;BMP_temperature;BMP_pressure;BME280_temperature;BME280_humidity;BME280_pressure;Samples;Min_cycle;Max_cycle;Signal;HPM_P1;HPM_P2
2021/09/01 00:01:27;;;;;;;5.57;5.00;;;;;;;18.03;73.48;94937.19;5178034;27;20486;-82
2021/09/01 00:03:54;;;;;;;8.63;4.90;;;;;;;18.02;73.74;94940.03;5177961;27;20433;-83
2021/09/01 00:06:21;;;;;;;5.50;5.00;;;;;;;18.02;73.62;94943.50;5177986;27;20531;-82
2021/09/01 00:08:52;;;;;;;5.97;5.30;;;;;;;18.03;73.52;94949.63;5178305;27;20878;-81
2021/09/01 00:11:20;;;;;;;5.17;4.67;;;;;;;18.03;73.71;94941.69;5177957;27;20932;-83
2021/09/01 00:13:47;;;;;;;5.63;5.10;;;;;;;17.93;73.91;94956.00;5177931;27;20460;-82
2021/09/01 00:16:26;;;;;;;8.80;5.17;;;;;;;17.90;73.64;94964.28;5177796;27;20539;-82
2021/09/01 00:18:54;;;;;;;5.93;5.53;;;;;;;17.83;73.80;94958.03;5177584;27;20432;-83
2021/09/01 00:21:21;;;;;;;8.37;5.50;;;;;;;17.87;74.03;94961.97;5177857;27;20486;-83
2021/09/01 00:23:47;;;;;;;7.10;5.60;;;;;;;17.86;74.17;94967.47;5177625;27;20459;-82
2021/09/01 00:26:14;;;;;;;6.77;4.63;;;;;;;17.83;74.09;94973.94;5177454;27;20444;-82
2021/09/01 00:28:43;;;;;;;8.57;5.70;;;;;;;17.87;74.05;94972.59;5177588;27;20532;-82
2021/09/01 00:31:10;;;;;;;5.57;5.07;;;;;;;17.90;74.21;94974.91;5177356;27;20786;-82
2021/09/01 00:33:37;;;;;;;7.23;5.90;;;;;;;17.92;74.07;94982.69;5177743;27;20500;-82
2021/09/01 00:36:04;;;;;;;5.07;4.67;;;;;;;17.88;74.13;94981.38;5177601;27;20912;-82
2021/09/01 00:38:31;;;;;;;5.80;5.00;;;;;;;17.85;74.86;94982.56;5177405;27;20526;-82
2021/09/01 00:40:59;;;;;;;6.03;5.53;;;;;;;17.87;74.49;94988.53;5177307;27;20587;-82
2021/09/01 00:43:26;;;;;;;6.50;5.97;;;;;;;17.92;74.13;94985.34;5177082;27;20532;-83
2021/09/01 00:45:55;;;;;;;5.50;5.03;;;;;;;17.91;73.85;94992.50;5177165;27;20508;-82
2021/09/01 00:48:23;;;;;;;5.80;5.20;;;;;;;17.89;74.11;94999.81;5177159;27;20447;-82
2021/09/01 00:50:52;;;;;;;7.93;5.43;;;;;;;17.91;73.98;95007.59;5177046;27;20464;-83
2021/09/01 00:53:19;;;;;;;4.90;4.50;;;;;;;17.93;73.91;95002.97;5177532;27;20455;-82
2021/09/01 00:55:48;;;;;;;5.40;5.00;;;;;;;17.92;74.31;95003.94;5177057;27;20516;-82
2021/09/01 00:58:17;;;;;;;14.53;6.23;;;;;;;17.84;74.78;94994.19;5177025;27;20449;-82
2021/09/01 01:00:55;;;;;;;5.70;5.20;;;;;;;17.78;74.82;94996.72;5176588;27;20578;-82
2021/09/01 01:03:24;;;;;;;6.57;5.10;;;;;;;17.71;75.28;95001.88;5094020;27;20441;-82
2021/09/01 01:05:51;;;;;;;6.97;5.70;;;;;;;17.67;75.59;95003.22;5176804;27;20443;-82
2021/09/01 01:08:18;;;;;;;8.87;5.43;;;;;;;17.67;75.87;95005.88;5176839;27;20994;-82
2021/09/01 01:10:46;;;;;;;5.70;5.20;;;;;;;17.63;76.08;95004.50;5176616;27;20517;-82
2021/09/01 01:13:16;;;;;;;12.30;5.67;;;;;;;17.59;76.55;94992.56;5176717;27;20779;-82
2021/09/01 01:15:43;;;;;;;6.20;5.70;;;;;;;17.55;76.19;94996.56;5176693;27;20443;-83
2021/09/01 01:18:11;;;;;;;5.63;5.13;;;;;;;17.59;76.37;94989.91;5176749;27;20913;-83
2021/09/01 01:20:40;;;;;;;7.63;5.60;;;;;;;17.54;75.57;94987.78;5176411;27;20447;-82
2021/09/01 01:23:08;;;;;;;7.73;6.20;;;;;;;17.51;76.19;95000.56;5139513;27;20482;-82
2021/09/01 01:25:38;;;;;;;7.10;5.47;;;;;;;17.46;76.25;94993.13;5176541;27;20446;-82
2021/09/01 01:28:05;;;;;;;7.40;5.33;;;;;;;17.46;76.03;94993.13;5176612;27;20803;-82
2021/09/01 01:30:33;;;;;;;5.73;5.10;;;;;;;17.43;75.62;94993.47;5176521;27;20512;-83
2021/09/01 01:33:00;;;;;;;5.40;5.00;;;;;;;17.46;75.55;94998.44;5176157;27;20527;-82
2021/09/01 01:35:29;;;;;;;5.80;5.10;;;;;;;17.47;75.83;94999.25;5176335;27;20444;-82
2021/09/01 01:37:57;;;;;;;9.47;4.97;;;;;;;17.48;75.64;95001.72;5176031;27;20442;-83
2021/09/01 01:40:25;;;;;;;7.80;5.80;;;;;;;17.51;75.37;94998.75;5175888;27;20531;-82
2021/09/01 01:42:54;;;;;;;8.00;4.70;;;;;;;17.44;75.62;94996.94;5176221;27;20544;-82
2021/09/01 01:45:22;;;;;;;5.77;4.93;;;;;;;17.44;75.30;94996.94;5139122;27;20523;-82
2021/09/01 01:47:49;;;;;;;5.80;4.73;;;;;;;17.44;75.22;94999.59;5175755;27;20440;-82
2021/09/01 01:50:17;;;;;;;6.67;6.07;;;;;;;17.44;75.29;95000.44;5122808;27;20812;-82
2021/09/01 01:52:44;;;;;;;6.13;4.77;;;;;;;17.47;75.36;94993.94;5175788;27;20530;-82
2021/09/01 01:55:12;;;;;;;5.43;4.90;;;;;;;17.48;75.20;94993.78;5175961;27;20535;-82
2021/09/01 01:57:39;;;;;;;7.10;5.07;;;;;;;17.41;75.36;94992.81;5175797;27;20957;-82
2021/09/01 02:00:09;;;;;;;6.23;5.63;;;;;;;17.38;76.34;94990.50;5175692;27;20482;-83
2021/09/01 02:02:36;;;;;;;5.40;4.90;;;;;;;17.33;76.02;94977.72;5139097;27;20570;-82
2021/09/01 02:05:04;;;;;;;5.60;5.10;;;;;;;17.34;76.72;94982.03;5175467;27;20951;-83
2021/09/01 02:07:32;;;;;;;5.70;5.07;;;;;;;17.36;76.46;94981.88;5121979;27;20539;-82
2021/09/01 02:09:59;;;;;;;5.53;5.00;;;;;;;17.39;76.53;94983.38;5175300;27;20805;-83
2021/09/01 02:12:29;;;;;;;10.03;4.97;;;;;;;17.31;76.16;94985.00;5175481;27;20475;-82
2021/09/01 02:14:56;;;;;;;5.77;5.17;;;;;;;17.32;76.41;94985.84;5139546;27;20510;-82
2021/09/01 02:17:25;;;;;;;5.73;5.30;;;;;;;17.29;76.50;94984.34;5138734;27;20535;-82
2021/09/01 02:19:52;;;;;;;5.10;4.70;;;;;;;17.27;76.90;94977.56;5175084;27;20864;-82
2021/09/01 02:22:20;;;;;;;6.20;5.60;;;;;;;17.29;76.50;94971.09;5175511;27;20608;-83
2021/09/01 02:24:47;;;;;;;5.77;5.37;;;;;;;17.28;76.86;94971.25;5175491;27;20444;-82
2021/09/01 02:27:15;;;;;;;6.03;5.40;;;;;;;17.25;76.51;94968.94;5175204;27;20526;-82
2021/09/01 02:29:42;;;;;;;7.33;6.00;;;;;;;17.21;77.38;94979.06;5175193;27;20855;-82
2021/09/01 02:32:11;;;;;;;6.10;4.97;;;;;;;17.13;77.15;94975.63;5174792;27;20503;-82
2021/09/01 02:34:39;;;;;;;6.17;5.10;;;;;;;17.12;77.23;94980.09;5174967;27;21022;-82
2021/09/01 02:37:06;;;;;;;5.80;5.30;;;;;;;17.10;77.51;94973.31;5175291;27;20944;-82
2021/09/01 02:39:33;;;;;;;5.47;5.00;;;;;;;17.15;77.71;94978.94;5174972;27;20439;-82
2021/09/01 02:42:01;;;;;;;5.67;5.10;;;;;;;17.10;77.51;94976.78;5174975;27;20487;-83
2021/09/01 02:44:28;;;;;;;6.87;5.53;;;;;;;17.09;78.21;94974.28;5174798;27;20452;-82
2021/09/01 02:46:55;;;;;;;5.30;4.80;;;;;;;17.05;77.86;94984.38;5174841;27;20519;-83
2021/09/01 02:49:22;;;;;;;8.03;5.63;;;;;;;17.05;78.32;94995.00;5175058;27;20877;-82
2021/09/01 02:51:50;;;;;;;7.13;6.43;;;;;;;17.01;78.00;94988.38;5174899;27;20448;-83
2021/09/01 02:54:17;;;;;;;9.37;5.60;;;;;;;16.99;78.16;94996.50;5174789;27;20437;-82
2021/09/01 02:56:46;;;;;;;6.40;5.17;;;;;;;16.99;78.21;94985.06;5120910;27;20431;-82
2021/09/01 02:59:13;;;;;;;5.20;4.70;;;;;;;16.97;77.63;94993.19;5174370;27;20484;-82
2021/09/01 03:01:40;;;;;;;6.10;4.83;;;;;;;16.96;78.25;94990.69;5121185;27;20443;-82
2021/09/01 03:04:07;;;;;;;6.60;5.20;;;;;;;16.93;77.88;94997.16;5174623;27;20523;-82
2021/09/01 03:06:34;;;;;;;7.47;5.40;;;;;;;16.90;78.50;95001.97;5120886;27;20519;-82
2021/09/01 03:09:02;;;;;;;5.73;5.20;;;;;;;16.88;79.27;95003.97;5174419;27;20526;-87
2021/09/01 03:11:29;;;;;;;7.17;6.57;;;;;;;17.01;79.17;95005.09;5176661;27;20875;-86
2021/09/01 03:13:56;;;;;;;5.50;5.00;;;;;;;17.01;77.95;95004.28;5177019;27;20536;-85
2021/09/01 03:16:23;;;;;;;6.63;5.50;;;;;;;17.03;77.88;95007.59;5175996;27;20513;-78
2021/09/01 03:18:50;;;;;;;5.27;4.87;;;;;;;16.99;77.80;95000.97;5176174;27;20543;-80
2021/09/01 03:21:17;;;;;;;9.63;5.50;;;;;;;16.94;78.16;95001.47;5176208;27;20444;-80
2021/09/01 03:23:44;;;;;;;5.30;4.83;;;;;;;16.88;77.77;95003.97;5126613;27;20966;-80
2021/09/01 03:26:12;;;;;;;5.60;5.10;;;;;;;16.84;78.47;95014.06;5179733;27;20799;-81
2021/09/01 03:28:39;;;;;;;5.43;4.90;;;;;;;16.80;78.62;95007.44;5179771;27;20786;-80
2021/09/01 03:31:06;;;;;;;7.77;4.70;;;;;;;16.74;78.41;95002.78;5179995;27;20517;-83
2021/09/01 03:33:33;;;;;;;5.77;5.30;;;;;;;16.68;78.57;95012.22;5180159;27;20443;-81
2021/09/01 03:36:00;;;;;;;7.07;5.43;;;;;;;16.67;78.65;95013.22;5179758;27;20450;-81
2021/09/01 03:38:27;;;;;;;9.63;5.10;;;;;;;16.66;78.76;95014.22;5179469;27;20522;-81
2021/09/01 03:40:54;;;;;;;5.20;4.67;;;;;;;16.62;78.87;95014.69;5126278;27;20471;-81
2021/09/01 03:43:22;;;;;;;5.70;5.07;;;;;;;17.11;83.44;95014.72;5180122;27;20614;-85
2021/09/01 03:45:51;;;;;;;5.07;4.67;;;;;;;17.92;77.51;95026.00;5180092;27;20519;-85
2021/09/01 03:48:18;;;;;;;10.00;5.50;;;;;;;18.22;73.44;95026.25;5179735;27;20445;-81
2021/09/01 03:50:45;;;;;;;6.60;5.07;;;;;;;18.20;72.31;95033.53;5125722;27;20446;-81
2021/09/01 03:53:13;;;;;;;12.87;4.83;;;;;;;18.04;72.85;95038.94;5179437;27;20443;-80
2021/09/01 03:55:40;;;;;;;6.03;5.53;;;;;;;17.90;73.17;95030.66;5179399;27;20487;-80
2021/09/01 03:58:07;;;;;;;5.20;4.80;;;;;;;17.75;73.58;95034.22;5178782;27;20444;-80
2021/09/01 04:00:35;;;;;;;7.00;4.90;;;;;;;17.56;73.77;95032.72;5178682;27;20475;-80
2021/09/01 04:03:02;;;;;;;6.53;5.27;;;;;;;17.45;75.16;95038.41;5179097;27;20472;-79
2021/09/01 04:05:29;;;;;;;5.50;5.00;;;;;;;17.27;76.19;95039.41;5125514;27;20454;-80
2021/09/01 04:07:56;;;;;;;5.73;5.07;;;;;;;17.16;76.66;95039.75;5178789;27;20903;-79
2021/09/01 04:10:23;;;;;;;5.97;4.77;;;;;;;17.13;77.87;95036.59;5178606;27;20441;-79
2021/09/01 04:12:50;;;;;;;5.33;4.90;;;;;;;17.26;77.66;95042.22;5178618;27;20447;-79
2021/09/01 04:15:17;;;;;;;5.63;5.13;;;;;;;17.42;76.47;95042.22;5178889;27;20930;-80
2021/09/01 04:17:45;;;;;;;6.87;5.10;;;;;;;17.75;75.34;95037.69;5178648;27;20523;-80
2021/09/01 04:20:12;;;;;;;6.30;4.40;;;;;;;18.19;74.44;95043.31;5172684;27;20941;-80
2021/09/01 04:22:39;;;;;;;5.30;4.80;;;;;;;18.74;72.72;95049.53;5124566;27;20478;-80
2021/09/01 04:25:08;;;;;;;5.63;4.70;;;;;;;19.36;69.67;95046.72;5141558;27;20434;-81
2021/09/01 04:27:35;;;;;;;4.80;4.40;;;;;;;19.89;66.88;95043.09;5090571;27;20558;-81
2021/09/01 04:30:02;;;;;;;5.87;4.73;;;;;;;20.17;65.52;95040.59;5178075;27;20531;-80
2021/09/01 04:32:29;;;;;;;15.73;4.87;;;;;;;20.57;64.13;95041.13;5177914;27;20519;-80
2021/09/01 04:34:57;;;;;;;10.23;6.20;;;;;;;20.75;63.47;95051.38;5178869;27;20871;-80
2021/09/01 04:37:24;;;;;;;6.00;5.17;;;;;;;20.78;63.60;95057.16;5178002;27;20519;-80
2021/09/01 04:39:51;;;;;;;10.03;5.43;;;;;;;21.06;62.42;95045.72;5178085;27;20517;-80
2021/09/01 04:42:18;;;;;;;4.73;4.30;;;;;;;21.46;61.85;95050.47;5178003;27;20488;-80
2021/09/01 04:44:45;;;;;;;9.40;4.40;;;;;;;21.90;60.89;95050.16;5124593;27;20441;-81
2021/09/01 04:47:12;;;;;;;8.17;5.03;;;;;;;22.18;59.52;95050.16;5177988;27;20449;-80
2021/09/01 04:49:39;;;;;;;7.80;4.60;;;;;;;22.51;59.06;95057.50;5178650;27;20445;-81
2021/09/01 04:52:07;;;;;;;5.40;4.90;;;;;;;22.72;57.47;95049.34;5178915;27;20889;-81
2021/09/01 04:54:34;;;;;;;7.43;5.63;;;;;;;22.91;56.64;95053.16;5178564;27;20449;-80
2021/09/01 04:57:01;;;;;;;4.93;4.57;;;;;;;23.14;55.92;95053.63;5177891;27;20442;-81
2021/09/01 04:59:28;;;;;;;4.53;3.90;;;;;;;23.46;54.86;95054.69;5123861;27;20962;-81
2021/09/01 05:01:55;;;;;;;4.73;4.33;;;;;;;23.78;53.89;95060.28;5177797;27;20441;-81
2021/09/01 05:04:22;;;;;;;6.27;4.30;;;;;;;24.03;52.61;95063.13;5177376;27;20572;-81
2021/09/01 05:06:48;;;;;;;11.73;5.93;;;;;;;24.15;52.42;95053.41;5176774;27;20442;-81
2021/09/01 05:09:17;;;;;;;6.40;5.80;;;;;;;24.29;52.01;95047.03;5122265;27;20427;-81
2021/09/01 05:11:44;;;;;;;8.70;5.20;;;;;;;24.43;52.05;95055.03;5176271;27;20439;-81
2021/09/01 05:14:11;;;;;;;14.00;5.30;;;;;;;24.62;51.39;95049.59;5176919;27;20968;-82
2021/09/01 05:16:38;;;;;;;6.10;4.50;;;;;;;24.85;50.66;95050.91;5177102;27;20466;-81
2021/09/01 05:19:06;;;;;;;13.77;4.30;;;;;;;25.10;50.00;95051.84;5176494;27;20435;-81
2021/09/01 05:21:35;;;;;;;4.77;4.07;;;;;;;25.29;49.71;95053.59;5176444;27;20438;-81
2021/09/01 05:24:02;;;;;;;7.70;4.00;;;;;;;25.54;51.37;95052.78;5176090;27;20479;-81
2021/09/01 05:26:34;;;;;;;3.83;3.53;;;;;;;25.72;51.97;95052.88;5176271;27;20445;-82
2021/09/01 05:29:03;;;;;;;8.93;4.83;;;;;;;25.89;50.30;95048.59;5176239;27;20436;-80
2021/09/01 05:31:32;;;;;;;5.70;4.60;;;;;;;25.92;49.42;95045.44;5176085;27;20527;-81
2021/09/01 05:34:02;;;;;;;7.80;5.03;;;;;;;26.06;49.60;95046.16;5175878;27;20450;-81
2021/09/01 05:36:29;;;;;;;4.73;3.87;;;;;;;26.22;47.22;95052.81;5176388;27;20786;-84
2021/09/01 05:38:57;;;;;;;4.87;3.80;;;;;;;26.30;47.34;95047.13;5176465;27;20485;-84
2021/09/01 05:41:28;;;;;;;6.80;5.10;;;;;;;26.57;47.71;95055.78;5175897;27;20440;-84
2021/09/01 05:43:57;;;;;;;4.70;4.30;;;;;;;26.85;47.41;95050.66;5175152;27;20483;-86
2021/09/01 05:46:24;;;;;;;7.23;4.90;;;;;;;26.95;47.00;95044.75;5175815;27;20432;-84
2021/09/01 05:48:52;;;;;;;6.97;4.33;;;;;;;26.70;46.14;95044.84;5176220;27;20432;-84
2021/09/01 05:51:20;;;;;;;4.60;4.20;;;;;;;26.48;47.04;95046.38;5176007;27;20446;-84
2021/09/01 05:53:47;;;;;;;9.37;5.20;;;;;;;26.69;48.67;95051.28;5175775;27;20444;-84
2021/09/01 05:56:19;;;;;;;5.70;5.20;;;;;;;26.79;47.64;95037.28;5175411;27;20519;-81
2021/09/01 05:58:51;;;;;;;8.90;5.63;;;;;;;26.77;47.43;95044.78;5175797;27;20455;-81
2021/09/01 06:01:26;;;;;;;7.80;5.27;;;;;;;26.28;48.05;95041.16;5118296;27;20469;-81
2021/09/01 06:03:58;;;;;;;9.87;5.60;;;;;;;26.04;50.02;95042.88;5154582;27;20487;-81
2021/09/01 06:06:27;;;;;;;9.10;5.70;;;;;;;26.02;50.12;95036.91;5154481;27;20448;-80
2021/09/01 06:08:58;;;;;;;17.47;5.83;;;;;;;26.04;48.40;95042.06;5117781;27;20436;-81
2021/09/01 06:11:28;;;;;;;10.30;5.40;;;;;;;25.86;48.58;95035.59;5154598;27;20518;-81
2021/09/01 06:13:55;;;;;;;6.60;6.00;;;;;;;25.98;49.87;95034.84;5154295;27;20539;-81
2021/09/01 06:16:23;;;;;;;6.60;5.80;;;;;;;25.96;48.99;95036.94;5154142;27;20519;-81
2021/09/01 06:18:50;;;;;;;11.07;6.70;;;;;;;26.25;48.23;95028.97;5154276;27;20935;-81
2021/09/01 06:21:17;;;;;;;9.43;7.13;;;;;;;26.32;47.28;95031.63;5154144;27;20483;-81
2021/09/01 06:23:47;;;;;;;14.20;6.50;;;;;;;25.82;48.08;95037.09;5154244;27;20520;-80
2021/09/01 06:26:14;;;;;;;10.60;6.90;;;;;;;25.54;49.93;95032.13;5154071;27;20451;-81
2021/09/01 06:28:41;;;;;;;12.93;5.53;;;;;;;25.81;45.68;95034.63;5154174;27;20452;-80
2021/09/01 06:31:08;;;;;;;5.30;3.80;;;;;;;26.04;46.30;95036.69;5154206;27;20447;-80
2021/09/01 06:33:36;;;;;;;3.63;3.33;;;;;;;25.89;44.43;95027.06;5154078;27;20454;-81
2021/09/01 06:36:04;;;;;;;4.07;3.03;;;;;;;25.80;44.26;95033.78;5153809;27;20929;-80
2021/09/01 06:38:31;;;;;;;3.93;2.97;;;;;;;25.77;45.66;95028.84;5134499;27;20451;-80
2021/09/01 06:40:58;;;;;;;3.40;2.90;;;;;;;25.71;44.88;95035.09;5153783;27;20473;-80
2021/09/01 06:43:25;;;;;;;3.23;2.90;;;;;;;25.81;44.55;95042.69;5153881;27;20584;-81
2021/09/01 06:45:51;;;;;;;5.80;3.10;;;;;;;25.76;44.64;95043.34;5153844;27;20528;-80
2021/09/01 06:48:20;;;;;;;2.83;2.63;;;;;;;25.84;44.64;95045.75;5134606;27;20838;-80
2021/09/01 06:50:49;;;;;;;5.93;2.70;;;;;;;26.08;44.58;95051.31;5154112;27;20441;-80
2021/09/01 06:53:16;;;;;;;3.30;3.00;;;;;;;26.12;44.05;95045.28;5153728;27;20963;-80
2021/09/01 06:55:43;;;;;;;2.90;2.60;;;;;;;25.93;43.39;95041.72;5153508;27;20471;-80
2021/09/01 06:58:17;;;;;;;4.17;2.87;;;;;;;25.80;42.68;95049.09;5153597;27;20524;-80
2021/09/01 07:00:44;;;;;;;3.50;3.30;;;;;;;25.60;44.00;95049.22;5169186;27;20977;-80
2021/09/01 07:03:11;;;;;;;3.17;2.97;;;;;;;25.36;43.69;95061.59;5174211;27;20824;-80
2021/09/01 07:05:38;;;;;;;3.43;3.13;;;;;;;24.89;44.42;95066.41;5174635;27;20798;-80
2021/09/01 07:08:15;;;;;;;2.53;2.33;;;;;;;24.65;45.48;95059.06;5174386;27;21032;-81
2021/09/01 07:10:42;;;;;;;2.60;2.50;;;;;;;24.53;46.00;95068.81;5174773;27;20439;-82
2021/09/01 07:13:09;;;;;;;4.10;2.80;;;;;;;24.57;46.96;95065.47;5174344;27;20946;-82
2021/09/01 07:15:36;;;;;;;3.50;2.70;;;;;;;24.77;46.72;95064.59;5174499;27;20443;-81
2021/09/01 07:18:03;;;;;;;2.50;2.30;;;;;;;24.57;46.54;95060.09;5120690;27;20533;-82
2021/09/01 07:20:31;;;;;;;7.10;2.73;;;;;;;24.49;46.84;95071.09;5174632;27;20456;-81
2021/09/01 07:22:58;;;;;;;3.03;2.83;;;;;;;24.54;47.65;95049.81;5174428;27;20522;-82
2021/09/01 07:25:26;;;;;;;2.93;2.73;;;;;;;24.52;46.51;95049.19;5174033;27;20525;-81
2021/09/01 07:27:53;;;;;;;3.80;2.70;;;;;;;24.48;46.16;95047.16;5174169;27;20552;-81
2021/09/01 07:30:20;;;;;;;2.70;2.43;;;;;;;24.42;46.81;95062.25;5174333;27;20442;-82
2021/09/01 07:32:47;;;;;;;2.70;2.50;;;;;;;24.47;46.55;95050.88;5174351;27;20455;-82
2021/09/01 07:35:14;;;;;;;6.33;2.60;;;;;;;24.40;45.89;95053.59;5174191;27;20433;-82
2021/09/01 07:37:45;;;;;;;4.10;2.33;;;;;;;23.96;47.07;95052.41;5174122;27;20524;-82
2021/09/01 07:40:15;;;;;;;2.87;2.63;;;;;;;23.82;48.40;95050.78;5174122;27;20449;-82
2021/09/01 07:42:44;;;;;;;2.77;2.57;;;;;;;23.47;49.14;95058.19;5174314;27;20446;-81
2021/09/01 07:45:12;;;;;;;2.90;2.60;;;;;;;23.25;49.64;95054.88;5174139;27;20490;-82
2021/09/01 07:47:48;;;;;;;2.77;2.57;;;;;;;23.35;50.18;95060.63;5174007;27;20444;-81
2021/09/01 07:50:16;;;;;;;2.90;2.70;;;;;;;23.52;50.30;95049.53;5174055;27;20438;-81
2021/09/01 07:52:42;;;;;;;3.83;2.63;;;;;;;23.27;50.66;95052.81;5137241;27;20432;-81
2021/09/01 07:55:11;;;;;;;2.60;2.40;;;;;;;23.07;50.84;95057.28;5173959;27;20525;-82
2021/09/01 07:57:37;;;;;;;3.67;2.60;;;;;;;23.07;50.09;95047.41;5120804;27;20445;-82
2021/09/01 08:00:10;;;;;;;5.63;3.03;;;;;;;23.24;50.56;95055.91;5173992;27;20556;-82
2021/09/01 08:02:39;;;;;;;2.60;2.40;;;;;;;23.25;49.59;95054.88;5173993;27;21021;-81
2021/09/01 08:05:08;;;;;;;3.20;2.00;;;;;;;23.03;50.04;95058.72;5173998;27;20562;-82
2021/09/01 08:07:35;;;;;;;2.40;2.20;;;;;;;23.02;50.43;95051.72;5138668;27;20453;-82
2021/09/01 08:10:04;;;;;;;5.20;2.70;;;;;;;22.88;52.33;95066.13;5178283;27;20454;-81
2021/09/01 08:12:31;;;;;;;2.70;2.50;;;;;;;22.64;52.15;95060.25;5177577;27;20441;-82
2021/09/01 08:14:58;;;;;;;3.50;2.80;;;;;;;22.60;52.45;95053.66;5123973;27;20443;-82
2021/09/01 08:17:26;;;;;;;3.00;2.80;;;;;;;22.49;53.63;95054.19;5123702;27;20779;-81
2021/09/01 08:19:53;;;;;;;8.43;3.03;;;;;;;22.29;53.71;95058.66;5123759;27;20453;-82
2021/09/01 08:22:20;;;;;;;3.50;3.20;;;;;;;22.29;54.68;95056.81;5177685;27;20521;-82
2021/09/01 08:24:50;;;;;;;4.73;3.70;;;;;;;22.19;56.50;95059.81;5177331;27;20479;-82
2021/09/01 08:27:17;;;;;;;3.13;2.93;;;;;;;22.10;55.17;95055.66;5177433;27;20475;-81
2021/09/01 08:29:44;;;;;;;2.80;2.60;;;;;;;22.05;54.72;95057.28;5177382;27;20945;-82
2021/09/01 08:32:11;;;;;;;3.07;2.77;;;;;;;21.93;54.95;95062.28;5177140;27;20448;-81
2021/09/01 08:34:39;;;;;;;3.43;3.10;;;;;;;21.80;56.84;95064.88;5177348;27;20464;-81
2021/09/01 08:37:07;;;;;;;4.20;3.10;;;;;;;21.81;56.24;95058.53;5177284;27;20521;-82
2021/09/01 08:39:34;;;;;;;2.83;2.47;;;;;;;21.60;55.78;95056.72;5177245;27;20480;-82
2021/09/01 08:42:01;;;;;;;7.33;3.10;;;;;;;21.51;56.31;95056.03;5177116;27;20442;-80
2021/09/01 08:44:28;;;;;;;3.30;3.10;;;;;;;21.58;55.60;95059.59;5176903;27;21089;-81
2021/09/01 08:46:58;;;;;;;3.63;2.90;;;;;;;21.52;54.76;95047.00;5177012;27;20500;-81
2021/09/01 08:49:27;;;;;;;2.47;2.33;;;;;;;21.57;54.91;95049.91;5176724;27;20521;-81
2021/09/01 08:51:56;;;;;;;2.07;1.97;;;;;;;21.51;53.66;95041.88;5177154;27;20448;-82
2021/09/01 08:54:24;;;;;;;2.60;2.40;;;;;;;21.46;53.46;95042.44;5176805;27;20540;-81
2021/09/01 08:56:51;;;;;;;3.70;2.70;;;;;;;21.52;53.90;95041.66;5122993;27;20434;-80
2021/09/01 08:59:18;;;;;;;2.70;2.50;;;;;;;21.53;54.33;95046.00;5176637;27;20576;-81
2021/09/01 09:01:46;;;;;;;2.83;2.60;;;;;;;21.86;55.89;95048.06;5176507;27;20509;-81
2021/09/01 09:04:18;;;;;;;3.70;2.70;;;;;;;22.38;53.18;95038.72;5176659;27;20478;-80
2021/09/01 09:06:50;;;;;;;2.93;2.63;;;;;;;22.86;53.71;95028.84;5177079;27;20438;-81
2021/09/01 09:09:20;;;;;;;2.90;2.70;;;;;;;23.26;51.94;95028.91;5176657;27;20880;-81
2021/09/01 09:11:52;;;;;;;3.90;2.57;;;;;;;23.59;51.50;95027.09;5176405;27;20454;-81
2021/09/01 09:14:21;;;;;;;3.37;3.17;;;;;;;23.80;49.58;95026.06;5139669;27;20435;-81
2021/09/01 09:17:00;;;;;;;3.20;3.00;;;;;;;23.87;49.36;95018.81;5176916;27;20525;-81
2021/09/01 09:19:46;;;;;;;3.17;2.80;;;;;;;23.65;50.13;95022.75;5176880;27;20448;-81
2021/09/01 09:22:14;;;;;;;3.37;3.17;;;;;;;23.38;50.03;95017.38;5176394;27;20441;-81
2021/09/01 09:24:42;;;;;;;3.33;3.03;;;;;;;23.18;51.38;95013.88;5175918;27;20546;-81
2021/09/01 09:27:09;;;;;;;3.77;2.77;;;;;;;22.83;51.38;95022.03;5176407;27;20437;-81
2021/09/01 09:29:36;;;;;;;3.40;3.20;;;;;;;22.38;52.43;95015.50;5176162;27;21084;-80
2021/09/01 09:32:06;;;;;;;4.30;3.00;;;;;;;22.06;53.15;95008.16;5176484;27;20472;-80
2021/09/01 09:34:36;;;;;;;4.13;3.70;;;;;;;22.16;53.21;95011.28;5121747;27;20457;-81
2021/09/01 09:37:05;;;;;;;3.30;3.10;;;;;;;22.34;53.77;95008.06;5176016;27;20481;-81
2021/09/01 09:39:46;;;;;;;5.17;4.60;;;;;;;22.52;54.21;95008.34;5175837;27;20517;-81
2021/09/01 09:42:14;;;;;;;5.70;3.40;;;;;;;22.63;53.85;95002.41;5175799;27;20541;-81
2021/09/01 09:44:41;;;;;;;3.47;3.27;;;;;;;22.80;53.58;95016.22;5175705;27;20489;-80
2021/09/01 09:47:09;;;;;;;4.37;3.97;;;;;;;23.08;53.58;94994.69;5175836;27;20539;-81
2021/09/01 09:49:36;;;;;;;3.57;2.97;;;;;;;23.23;51.68;94999.88;5175732;27;20525;-81
2021/09/01 09:52:14;;;;;;;3.13;2.90;;;;;;;23.38;51.37;95001.31;5122133;27;20812;-80
2021/09/01 09:54:41;;;;;;;4.67;3.50;;;;;;;23.46;50.01;95002.97;5121999;27;20436;-81
2021/09/01 09:57:12;;;;;;;3.37;3.17;;;;;;;23.49;49.43;94997.19;5121737;27;20775;-81
2021/09/01 09:59:40;;;;;;;5.37;3.43;;;;;;;23.42;50.04;94991.84;5175359;27;20483;-80
2021/09/01 10:02:06;;;;;;;2.97;2.77;;;;;;;23.43;50.04;94993.50;5138906;27;20437;-81
2021/09/01 10:04:34;;;;;;;3.03;2.83;;;;;;;23.66;51.83;94994.94;5175676;27;20479;-81
2021/09/01 10:07:00;;;;;;;3.90;3.50;;;;;;;23.84;49.62;94994.28;5175823;27;20521;-81
2021/09/01 10:09:27;;;;;;;3.90;3.50;;;;;;;23.70;48.66;94990.78;5175664;27;21183;-81
2021/09/01 10:11:55;;;;;;;3.87;3.60;;;;;;;23.69;49.08;94995.34;5175403;27;20437;-80
2021/09/01 10:14:25;;;;;;;4.17;3.73;;;;;;;23.83;49.85;94996.16;5175466;27;20861;-81
2021/09/01 10:16:58;;;;;;;3.90;3.60;;;;;;;23.91;49.29;94985.19;5174981;27;20437;-81
2021/09/01 10:19:28;;;;;;;4.07;3.67;;;;;;;23.57;49.40;94983.63;5175643;27;20442;-81
2021/09/01 10:21:58;;;;;;;3.77;3.47;;;;;;;23.70;49.71;94990.78;5175261;27;20444;-81
2021/09/01 10:24:30;;;;;;;4.03;3.50;;;;;;;23.72;48.51;94986.09;5121883;27;20485;-81
2021/09/01 10:27:06;;;;;;;3.20;3.00;;;;;;;23.60;48.68;94991.22;5174910;27;20444;-81
2021/09/01 10:29:47;;;;;;;3.63;3.33;;;;;;;23.52;49.60;94988.75;5175066;27;20434;-82
2021/09/01 10:32:28;;;;;;;3.60;3.30;;;;;;;23.56;49.74;94997.22;5174986;27;20441;-81
2021/09/01 10:35:34;;;;;;;3.53;3.33;;;;;;;23.63;50.46;95008.75;5174963;27;20526;-81
2021/09/01 10:38:11;;;;;;;3.60;3.40;;;;;;;23.60;50.36;94998.44;5090028;28;20441;-81
2021/09/01 10:40:56;;;;;;;4.00;3.60;;;;;;;23.64;49.23;95000.50;5056256;28;20523;-82
2021/09/01 10:43:23;;;;;;;3.27;3.07;;;;;;;23.74;49.05;95000.09;5056247;28;20433;-81
2021/09/01 10:45:58;;;;;;;3.60;3.30;;;;;;;23.73;48.25;95009.16;5056125;28;20480;-81
2021/09/01 10:48:26;;;;;;;3.70;3.20;;;;;;;23.71;50.20;95001.34;5089960;28;20499;-81
2021/09/01 10:50:53;;;;;;;3.47;3.27;;;;;;;23.56;48.50;95008.75;5090037;28;20451;-81
2021/09/01 10:53:23;;;;;;;3.60;3.30;;;;;;;23.35;49.20;95012.44;5073008;28;20443;-81
2021/09/01 10:55:53;;;;;;;3.67;3.37;;;;;;;23.20;49.12;95009.13;5090011;28;20475;-81
2021/09/01 10:58:33;;;;;;;3.53;3.33;;;;;;;23.39;50.20;95008.31;5090014;28;20442;-81
2021/09/01 11:01:11;;;;;;;3.20;3.00;;;;;;;23.48;49.53;95020.47;5089691;28;20988;-81
2021/09/01 11:03:40;;;;;;;3.43;3.13;;;;;;;23.46;48.40;95024.41;5089646;28;20490;-81
2021/09/01 11:06:28;;;;;;;5.10;3.93;;;;;;;23.43;47.99;95027.50;5089715;28;20527;-81
2021/09/01 11:09:11;;;;;;;3.77;3.47;;;;;;;23.49;48.84;95035.53;5089112;28;20455;-81
2021/09/01 11:11:47;;;;;;;3.50;3.30;;;;;;;23.49;49.13;95026.66;5089814;28;20437;-80
2021/09/01 11:14:27;;;;;;;5.30;3.17;;;;;;;23.49;48.03;95032.03;5103889;27;20812;-81
2021/09/01 11:16:56;;;;;;;2.80;2.60;;;;;;;23.44;46.66;95029.97;5174351;27;20455;-81
2021/09/01 11:19:23;;;;;;;4.43;2.80;;;;;;;23.56;47.59;95030.19;5174249;27;20443;-81
2021/09/01 11:21:55;;;;;;;3.20;3.00;;;;;;;23.57;46.19;95025.66;5174507;27;20439;-81
2021/09/01 11:24:22;;;;;;;3.20;3.00;;;;;;;23.61;46.31;95018.84;5174742;27;20486;-81
2021/09/01 11:26:55;;;;;;;2.90;2.70;;;;;;;23.58;46.87;95021.94;5174604;27;20456;-81
2021/09/01 11:29:33;;;;;;;2.67;2.47;;;;;;;23.66;46.00;95021.72;5174571;27;20445;-81
2021/09/01 11:32:02;;;;;;;8.47;2.60;;;;;;;23.64;45.63;95016.56;5174220;27;20451;-81
2021/09/01 11:34:29;;;;;;;6.03;2.83;;;;;;;23.65;45.80;95012.03;5174210;27;20808;-81
2021/09/01 11:36:56;;;;;;;2.87;2.67;;;;;;;23.62;46.35;95009.78;5174628;27;20525;-81
2021/09/01 11:39:26;;;;;;;3.27;3.07;;;;;;;23.57;45.40;94997.00;5174320;27;20444;-81
2021/09/01 11:42:01;;;;;;;2.57;2.43;;;;;;;23.54;44.31;95008.09;5174264;27;20793;-80